Time;durP1;ratioP1;P1;durP2;ratioP2;P2;SDS_P1;SDS_P2;PMS_P1;PMS_P2;Temp;Humidity;BMP_temperature;BMP_pressure;BME280_temperature;BME280_humidity;BME280_pressure;Samples;Min_cycle;Max_cycle;Signal;HPM_P1;HPM_P2
2021/09/10 00:00:05;;;;;;;;;1.50;1.50;;;;;27.22;71.55;98688.38;6306414;22;8827;-76
2021/09/10 00:02:34;;;;;;;;;1.75;1.75;;;;;27.23;71.46;98692.63;6306577;22;8781;-76
2021/09/10 00:05:05;;;;;;;;;1.00;1.00;;;;;27.25;71.61;98706.56;6306564;22;8781;-77
2021/09/10 00:07:34;;;;;;;;;0.75;0.75;;;;;27.22;71.62;98699.97;6306044;22;8781;-76
2021/09/10 00:10:05;;;;;;;;;0.50;0.50;;;;;27.26;71.39;98713.53;6306613;22;8797;-76
2021/09/10 00:12:34;;;;;;;;;0.75;0.75;;;;;27.28;71.46;98709.31;6306474;22;8789;-76
2021/09/10 00:15:04;;;;;;;;;0.25;0.25;;;;;27.29;71.06;98723.63;6306802;22;9586;-76
2021/09/10 00:17:33;;;;;;;;;0.67;0.67;;;;;27.30;71.12;98730.59;6307320;22;8838;-76
2021/09/10 00:20:02;;;;;;;;;0.25;0.25;;;;;27.31;71.02;98726.69;6306838;22;8804;-76
2021/09/10 00:22:31;;;;;;;;;1.75;1.75;;;;;27.30;70.69;98727.88;6306680;22;8800;-76
2021/09/10 00:24:59;;;;;;;;;1.25;1.25;;;;;27.36;70.63;98742.59;6306551;22;8808;-76
2021/09/10 00:27:28;;;;;;;;;0.75;0.75;;;;;27.39;70.51;98743.75;6306308;22;8788;-76
2021/09/10 00:29:57;;;;;;;;;1.00;1.00;;;;;27.42;70.08;98751.13;6307260;22;8804;-76
2021/09/10 00:32:27;;;;;;;;;0.75;0.75;;;;;27.44;70.09;98765.84;6307064;22;8784;-76
2021/09/10 00:34:56;;;;;;;;;2.25;1.00;;;;;27.47;70.92;98764.31;6306396;22;8796;-76
2021/09/10 00:37:25;;;;;;;;;1.00;1.00;;;;;27.50;70.33;98772.47;6306370;22;9595;-76
2021/09/10 00:39:54;;;;;;;;;1.00;1.00;;;;;27.55;70.14;98771.34;6306381;22;9575;-76
2021/09/10 00:42:22;;;;;;;;;0.50;0.50;;;;;27.55;70.43;98772.13;6306516;22;9624;-76
2021/09/10 00:44:51;;;;;;;;;1.25;1.25;;;;;27.62;69.88;98771.41;6306356;22;8870;-76
2021/09/10 00:47:20;;;;;;;;;0.75;0.75;;;;;27.65;70.13;98778.78;6306195;22;8846;-76
2021/09/10 00:49:49;;;;;;;;;1.00;1.00;;;;;27.67;70.13;98768.34;6308660;22;8883;-76
2021/09/10 00:52:19;;;;;;;;;0.75;0.75;;;;;27.69;69.85;98766.03;6308616;22;8769;-76
2021/09/10 00:54:48;;;;;;;;;0.75;0.75;;;;;27.75;69.41;98777.28;6307982;22;8889;-76
2021/09/10 00:57:18;;;;;;;;;0.75;0.75;;;;;27.76;69.79;98789.66;6307107;22;8787;-77
2021/09/10 00:59:47;;;;;;;;;0.25;0.25;;;;;27.75;69.83;98783.47;6308054;22;8787;-77
2021/09/10 01:02:17;;;;;;;;;0.75;0.75;;;;;27.78;69.80;98795.50;6306880;22;8781;-75
2021/09/10 01:04:46;;;;;;;;;0.50;0.50;;;;;27.77;69.73;98794.72;6308486;22;8793;-74
2021/09/10 01:07:15;;;;;;;;;0.75;0.75;;;;;27.79;70.11;98805.97;6308037;22;8793;-76
2021/09/10 01:09:45;;;;;;;;;0.75;0.75;;;;;27.78;69.90;98800.91;6307585;22;8891;-76
2021/09/10 01:12:16;;;;;;;;;1.00;1.00;;;;;27.77;69.80;98810.19;6307796;22;8818;-76
2021/09/10 01:14:46;;;;;;;;;0.00;0.00;;;;;27.75;69.48;98815.22;6308590;22;8797;-76
2021/09/10 01:17:15;;;;;;;;;1.00;1.00;;;;;27.73;69.22;98804.75;6307230;22;8797;-75
2021/09/10 01:19:44;;;;;;;;;1.00;1.00;;;;;27.72;69.34;98816.75;6282234;22;8870;-76
2021/09/10 01:22:14;;;;;;;;;0.50;0.50;;;;;27.72;69.31;98816.75;6307602;22;9532;-77
2021/09/10 01:25:11;;;;;;;;;1.25;1.25;;;;;27.69;69.32;98817.50;6307379;22;8777;-75
2021/09/10 01:27:54;;;;;;;;;1.50;1.50;;;;;27.69;69.10;98820.22;6306738;22;8777;-76
2021/09/10 01:30:28;;;;;;;;;0.75;0.75;;;;;27.68;69.60;98823.31;6307643;22;8788;-77
2021/09/10 01:32:59;;;;;;;;;1.25;1.25;;;;;27.67;69.23;98814.41;6280046;22;8867;-77
2021/09/10 01:35:29;;;;;;;;;0.75;0.75;;;;;27.65;69.08;98830.25;6307604;22;8901;-76
2021/09/10 01:37:58;;;;;;;;;0.00;0.00;;;;;27.62;69.24;98831.03;6307432;22;8807;-76
2021/09/10 01:40:27;;;;;;;;;1.00;1.00;;;;;27.59;69.41;98837.97;6307549;22;8924;-74
2021/09/10 01:42:57;;;;;;;;;0.75;0.75;;;;;27.56;69.44;98829.78;6307171;22;8874;-76
2021/09/10 01:45:26;;;;;;;;;0.75;0.75;;;;;27.56;69.68;98830.56;6280475;22;8781;-76
2021/09/10 01:47:55;;;;;;;;;0.75;0.75;;;;;27.54;69.91;98832.88;6306752;22;9771;-77
2021/09/10 01:50:25;;;;;;;;;1.00;1.00;;;;;27.55;69.33;98826.31;6306963;22;8883;-77
2021/09/10 01:52:54;;;;;;;;;1.75;1.75;;;;;27.54;69.78;98832.09;6306568;22;8789;-76
2021/09/10 01:55:23;;;;;;;;;0.75;0.75;;;;;27.52;69.99;98831.69;6305290;22;8816;-76
2021/09/10 01:57:53;;;;;;;;;1.00;1.00;;;;;27.47;71.06;98829.34;6307088;22;8899;-75
2021/09/10 02:00:22;;;;;;;;;1.50;1.50;;;;;27.47;71.42;98827.41;6306782;22;8789;-75
2021/09/10 02:02:51;;;;;;;;;1.50;1.50;;;;;27.47;72.14;98832.06;6307138;22;8824;-75
2021/09/10 02:05:20;;;;;;;;;2.25;2.25;;;;;27.48;72.02;98845.22;6306560;22;8862;-76
2021/09/10 02:07:49;;;;;;;;;1.00;1.00;;;;;27.51;72.03;98846.41;6306698;22;8792;-75
2021/09/10 02:10:18;;;;;;;;;1.00;1.00;;;;;27.48;72.09;98839.03;6308580;22;8808;-75
2021/09/10 02:12:47;;;;;;;;;1.00;1.00;;;;;27.54;71.97;98848.34;6307395;22;8788;-75
2021/09/10 02:15:17;;;;;;;;;1.00;1.00;;;;;27.52;71.35;98854.16;6307135;22;8792;-76
2021/09/10 02:17:46;;;;;;;;;0.75;0.75;;;;;27.50;72.06;98852.97;6307021;22;8823;-77
2021/09/10 02:20:15;;;;;;;;;1.25;1.25;;;;;27.45;69.76;98851.41;6306926;22;8777;-77
2021/09/10 02:22:44;;;;;;;;;0.75;0.75;;;;;27.44;71.10;98857.97;6307225;22;9591;-76
2021/09/10 02:25:13;;;;;;;;;0.50;0.50;;;;;27.35;71.72;98852.09;6306753;22;8788;-77
2021/09/10 02:27:42;;;;;;;;;1.00;1.00;;;;;27.24;70.95;98843.91;6306594;22;8835;-76
2021/09/10 02:30:12;;;;;;;;;0.75;0.75;;;;;27.22;70.45;98851.63;6307010;22;8808;-76
2021/09/10 02:32:41;;;;;;;;;0.00;0.00;;;;;27.19;70.42;98855.09;6306788;22;8817;-75
2021/09/10 02:35:10;;;;;;;;;0.00;0.00;;;;;27.14;70.21;98851.94;6307177;22;8869;-75
2021/09/10 02:37:39;;;;;;;;;0.00;0.00;;;;;27.09;70.78;98855.00;6306671;22;8797;-76
2021/09/10 02:40:09;;;;;;;;;0.25;0.00;;;;;27.05;71.19;98852.25;6307101;22;9541;-76
2021/09/10 02:42:41;;;;;;;;;0.25;0.25;;;;;27.03;72.03;98851.06;6307536;22;8912;-77
2021/09/10 02:45:10;;;;;;;;;0.00;0.00;;;;;27.08;71.35;98848.03;6306961;22;8792;-77
2021/09/10 02:47:40;;;;;;;;;0.75;0.75;;;;;27.08;71.19;98854.22;6307477;22;8796;-76
2021/09/10 02:50:09;;;;;;;;;0.25;0.25;;;;;27.03;71.56;98843.72;6279647;22;8904;-77
2021/09/10 02:52:38;;;;;;;;;0.25;0.25;;;;;27.04;70.99;98845.28;6307452;22;8843;-76
2021/09/10 02:55:08;;;;;;;;;0.00;0.00;;;;;27.07;71.19;98847.25;6308184;22;9353;-77
2021/09/10 02:57:37;;;;;;;;;0.00;0.00;;;;;27.09;71.20;98846.88;6308116;22;8893;-77
2021/09/10 03:00:06;;;;;;;;;0.00;0.00;;;;;27.11;71.72;98847.28;6306298;22;8884;-76
2021/09/10 03:02:35;;;;;;;;;0.00;0.00;;;;;27.13;70.50;98853.09;6306707;22;8805;-77
2021/09/10 03:05:05;;;;;;;;;0.00;0.00;;;;;27.13;71.49;98851.16;6306720;22;8789;-76
2021/09/10 03:07:34;;;;;;;;;0.00;0.00;;;;;27.16;70.47;98852.34;6279423;22;8789;-77
2021/09/10 03:10:05;;;;;;;;;0.00;0.00;;;;;27.14;70.11;98843.81;6306030;22;8921;-76
2021/09/10 03:12:36;;;;;;;;;0.00;0.00;;;;;27.16;70.32;98850.44;6304468;22;8832;-76
2021/09/10 03:15:06;;;;;;;;;0.00;0.00;;;;;27.18;70.01;98850.06;6304881;22;8780;-76
2021/09/10 03:17:35;;;;;;;;;0.75;0.75;;;;;27.13;70.86;98844.97;6304448;22;8796;-77
2021/09/10 03:20:05;;;;;;;;;1.00;1.00;;;;;27.21;70.67;98844.66;6304611;22;8788;-72
2021/09/10 03:22:34;;;;;;;;;0.00;0.00;;;;;27.26;70.41;98846.25;6306184;22;8865;-76
2021/09/10 03:25:05;;;;;;;;;0.50;0.50;;;;;27.32;70.66;98842.00;6305582;22;8795;-75
2021/09/10 03:27:35;;;;;;;;;0.00;0.00;;;;;27.42;70.05;98844.03;6304834;22;8793;-76
2021/09/10 03:30:09;;;;;;;;;0.00;0.00;;;;;27.48;71.35;98837.09;6304581;22;8819;-76
2021/09/10 03:32:38;;;;;;;;;0.00;0.00;;;;;27.54;70.61;98837.53;6305114;22;8976;-77
2021/09/10 03:35:07;;;;;;;;;0.25;0.25;;;;;27.59;70.26;98834.47;6304874;22;8819;-76
2021/09/10 03:37:35;;;;;;;;;0.00;0.00;;;;;27.59;70.03;98832.56;6278364;22;8781;-75
2021/09/10 03:40:05;;;;;;;;;0.00;0.00;;;;;27.59;69.95;98834.47;6306140;22;8827;-77
2021/09/10 03:42:36;;;;;;;;;0.25;0.25;;;;;27.59;69.90;98834.47;6306531;22;9616;-76
2021/09/10 03:45:07;;;;;;;;;0.00;0.00;;;;;27.57;70.10;98828.63;6281931;22;8815;-76
2021/09/10 03:47:36;;;;;;;;;0.00;0.00;;;;;27.59;69.91;98827.13;6307013;22;8789;-76
2021/09/10 03:50:05;;;;;;;;;0.00;0.00;;;;;27.58;69.91;98820.13;6279992;22;8785;-76
2021/09/10 03:52:33;;;;;;;;;0.00;0.00;;;;;27.57;70.03;98820.50;6306009;22;8805;-77
2021/09/10 03:55:02;;;;;;;;;0.00;0.00;;;;;27.61;69.97;98813.22;6305079;22;8804;-77
2021/09/10 03:57:31;;;;;;;;;0.00;0.00;;;;;27.56;70.02;98802.69;6305920;22;8870;-76
2021/09/10 03:59:59;;;;;;;;;0.00;0.00;;;;;27.63;69.59;98805.47;6306443;22;8797;-77
2021/09/10 04:02:28;;;;;;;;;0.25;0.25;;;;;27.66;69.61;98803.94;6305680;22;8785;-77
2021/09/10 04:04:57;;;;;;;;;0.00;0.00;;;;;27.68;69.11;98794.28;6279618;22;8884;-77
2021/09/10 04:07:25;;;;;;;;;0.00;0.00;;;;;27.77;69.28;98796.66;6305663;22;8883;-77
2021/09/10 04:09:54;;;;;;;;;0.00;0.00;;;;;27.81;68.85;98787.38;6305478;22;8879;-77
2021/09/10 04:12:23;;;;;;;;;0.25;0.25;;;;;27.88;68.98;98792.06;6278139;22;8897;-76
2021/09/10 04:14:51;;;;;;;;;0.00;0.00;;;;;27.90;68.74;98795.16;6305012;22;9500;-76
2021/09/10 04:17:20;;;;;;;;;0.00;0.00;;;;;27.88;68.62;98792.84;6304733;22;8858;-76
2021/09/10 04:19:48;;;;;;;;;0.00;0.00;;;;;27.84;68.68;98783.91;6303709;22;8802;-76
2021/09/10 04:22:17;;;;;;;;;0.00;0.00;;;;;27.82;68.67;98788.94;6303457;22;8801;-76
2021/09/10 04:24:46;;;;;;;;;0.00;0.00;;;;;27.76;68.64;98785.03;6306059;22;8846;-78
2021/09/10 04:27:14;;;;;;;;;0.75;0.75;;;;;27.71;68.81;98777.25;6306249;22;8808;-75
2021/09/10 04:29:43;;;;;;;;;0.00;0.00;;;;;27.69;68.93;98774.16;6307682;22;8817;-75
2021/09/10 04:32:11;;;;;;;;;0.75;0.75;;;;;27.62;68.89;98771.41;6308585;22;8888;-76
2021/09/10 04:34:40;;;;;;;;;0.00;0.00;;;;;27.58;68.77;98767.88;6280056;22;8804;-75
2021/09/10 04:37:08;;;;;;;;;0.75;0.75;;;;;27.56;68.74;98764.75;6307904;22;8800;-76
2021/09/10 04:39:37;;;;;;;;;0.00;0.00;;;;;27.50;68.97;98767.06;6306806;22;8849;-76
2021/09/10 04:42:05;;;;;;;;;0.00;0.00;;;;;27.45;69.10;98755.81;6278484;22;8789;-76
2021/09/10 04:44:34;;;;;;;;;0.25;0.25;;;;;27.43;69.50;98756.19;6305249;22;8793;-75
2021/09/10 04:47:03;;;;;;;;;0.75;0.75;;;;;27.39;69.25;98741.06;6305103;22;8820;-77
2021/09/10 04:49:31;;;;;;;;;0.00;0.00;;;;;27.35;69.33;98748.38;6305451;22;8814;-76
2021/09/10 04:52:00;;;;;;;;;0.00;0.00;;;;;27.32;69.15;98739.09;6279672;22;8804;-76
2021/09/10 04:54:29;;;;;;;;;0.00;0.00;;;;;27.33;69.10;98729.03;6308175;22;8800;-76
2021/09/10 04:56:58;;;;;;;;;0.25;0.25;;;;;27.28;69.62;98712.00;6306501;22;8862;-76
2021/09/10 04:59:26;;;;;;;;;0.25;0.25;;;;;27.38;69.59;98717.84;6279631;22;8781;-76
2021/09/10 05:01:55;;;;;;;;;0.50;0.50;;;;;27.39;69.38;98716.69;6306811;22;8789;-75
2021/09/10 05:04:28;;;;;;;;;0.75;0.75;;;;;27.38;69.14;98705.06;6306641;22;8811;-77
2021/09/10 05:06:57;;;;;;;;;0.00;0.00;;;;;27.38;69.34;98704.28;6305844;22;8805;-76
2021/09/10 05:09:26;;;;;;;;;0.00;0.00;;;;;27.38;69.48;98701.59;6305227;22;8801;-76
2021/09/10 05:11:54;;;;;;;;;0.00;0.00;;;;;27.39;69.35;98701.19;6304609;22;8825;-78
2021/09/10 05:14:23;;;;;;;;;1.25;1.25;;;;;27.42;69.46;98705.09;6305749;22;8918;-77
2021/09/10 05:16:51;;;;;;;;;0.50;0.50;;;;;27.47;69.22;98712.84;6306149;22;8801;-76
2021/09/10 05:19:20;;;;;;;;;0.75;0.75;;;;;27.52;69.27;98701.66;6304619;22;8780;-76
2021/09/10 05:21:50;;;;;;;;;0.00;0.00;;;;;27.60;68.53;98703.25;6303537;22;8887;-78
2021/09/10 05:24:20;;;;;;;;;0.00;0.00;;;;;27.69;68.54;98700.97;6305520;22;8811;-77
2021/09/10 05:26:49;;;;;;;;;0.00;0.00;;;;;27.79;68.71;98685.91;6304953;22;8813;-76
2021/09/10 05:29:18;;;;;;;;;0.00;0.00;;;;;27.90;69.01;98675.88;6304741;22;8820;-76
2021/09/10 05:31:47;;;;;;;;;0.00;0.00;;;;;27.98;68.54;98669.31;6304972;22;8828;-76
2021/09/10 05:34:16;;;;;;;;;0.00;0.00;;;;;28.04;68.42;98659.63;6278061;22;8809;-77
2021/09/10 05:36:44;;;;;;;;;0.00;0.00;;;;;28.09;68.60;98655.78;6277952;22;8797;-77
2021/09/10 05:39:13;;;;;;;;;0.00;0.00;;;;;28.17;68.58;98651.91;6304749;22;8808;-76
2021/09/10 05:41:42;;;;;;;;;0.00;0.00;;;;;28.20;67.97;98659.28;6282287;22;8781;-78
2021/09/10 05:44:10;;;;;;;;;0.25;0.25;;;;;28.29;68.95;98658.94;6280866;22;8792;-76
2021/09/10 05:46:39;;;;;;;;;0.00;0.00;;;;;28.35;67.84;98646.53;6309368;22;8789;-76
2021/09/10 05:49:07;;;;;;;;;0.00;0.00;;;;;28.45;68.20;98638.41;6307641;22;8788;-77
2021/09/10 05:51:37;;;;;;;;;0.00;0.00;;;;;28.54;67.94;98636.06;6308455;22;8824;-77
2021/09/10 05:54:05;;;;;;;;;0.20;0.20;;;;;28.67;67.91;98630.22;6307673;22;8827;-76
2021/09/10 05:56:38;;;;;;;;;0.00;0.00;;;;;28.85;67.23;98626.34;6306877;22;8867;-75
2021/09/10 05:59:07;;;;;;;;;0.00;0.00;;;;;29.00;67.00;98613.50;6276690;22;8824;-76
2021/09/10 06:01:35;;;;;;;;;0.00;0.00;;;;;29.18;66.66;98613.44;6304691;22;8822;-77
2021/09/10 06:04:04;;;;;;;;;0.00;0.00;;;;;29.33;67.06;98606.00;6308139;22;8780;-77
2021/09/10 06:06:33;;;;;;;;;0.00;0.00;;;;;29.46;66.13;98599.00;6306519;22;8810;-77
2021/09/10 06:09:02;;;;;;;;;0.00;0.00;;;;;29.50;66.57;98592.38;6306119;22;8892;-76
2021/09/10 06:11:31;;;;;;;;;0.00;0.00;;;;;29.70;66.01;98589.91;6306627;22;8895;-76
2021/09/10 06:13:59;;;;;;;;;0.00;0.00;;;;;29.84;65.60;98586.34;6305364;22;8788;-77
2021/09/10 06:16:28;;;;;;;;;0.00;0.00;;;;;29.93;64.33;98583.91;6306138;22;8789;-76
2021/09/10 06:18:57;;;;;;;;;0.00;0.00;;;;;30.03;65.27;98571.44;6279745;22;8785;-76
2021/09/10 06:21:26;;;;;;;;;0.00;0.00;;;;;30.11;65.36;98573.69;6306218;22;8789;-76
2021/09/10 06:23:54;;;;;;;;;0.00;0.00;;;;;30.12;64.77;98571.75;6306004;22;8777;-76
2021/09/10 06:26:24;;;;;;;;;0.00;0.00;;;;;30.09;63.63;98567.13;6305941;22;8820;-77
2021/09/10 06:28:52;;;;;;;;;0.00;0.00;;;;;30.13;64.24;98555.03;6305314;22;8922;-77
2021/09/10 06:31:21;;;;;;;;;0.00;0.00;;;;;30.22;64.29;98543.69;6304921;22;8801;-77
2021/09/10 06:33:50;;;;;;;;;0.00;0.00;;;;;30.34;65.41;98537.75;6304369;22;8951;-75
2021/09/10 06:36:18;;;;;;;;;0.00;0.00;;;;;30.40;65.06;98530.69;6309072;22;8777;-76
2021/09/10 06:38:49;;;;;;;;;0.00;0.00;;;;;30.39;63.91;98540.03;6282724;22;8858;-77
2021/09/10 06:41:17;;;;;;;;;0.00;0.00;;;;;30.33;63.44;98525.31;6279691;22;8777;-77
2021/09/10 06:43:46;;;;;;;;;0.00;0.00;;;;;30.35;65.12;98520.25;6305716;22;8799;-76
2021/09/10 06:46:14;;;;;;;;;0.00;0.00;;;;;30.36;63.09;98521.00;6305684;22;8819;-76
2021/09/10 06:48:43;;;;;;;;;0.00;0.00;;;;;30.39;64.86;98523.69;6307564;22;8839;-77
2021/09/10 06:51:11;;;;;;;;;0.60;0.60;;;;;30.39;64.40;98520.97;6306920;22;8800;-74
2021/09/10 06:53:40;;;;;;;;;0.00;0.00;;;;;30.36;65.40;98521.78;6306556;22;8895;-78
2021/09/10 06:56:09;;;;;;;;;0.00;0.00;;;;;30.26;63.97;98505.56;6306163;22;9545;-78
2021/09/10 06:58:38;;;;;;;;;0.80;0.80;;;;;30.26;64.42;98500.91;6305344;22;9577;-77
2021/09/10 07:01:07;;;;;;;;;0.00;0.00;;;;;30.22;63.81;98499.38;6306125;22;8866;-76
2021/09/10 07:03:36;;;;;;;;;0.00;0.00;;;;;30.21;62.92;98498.59;6306913;22;8866;-77
2021/09/10 07:06:06;;;;;;;;;0.00;0.00;;;;;30.27;63.32;98497.00;6309500;22;8785;-77
2021/09/10 07:08:35;;;;;;;;;0.00;0.00;;;;;30.38;62.59;98489.50;6307091;22;8781;-77
2021/09/10 07:11:04;;;;;;;;;0.00;0.00;;;;;30.50;63.27;98488.19;6308691;22;8812;-77
2021/09/10 07:13:33;;;;;;;;;0.00;0.00;;;;;30.56;61.70;98478.41;6309160;22;8852;-77
2021/09/10 07:16:02;;;;;;;;;0.00;0.00;;;;;30.62;62.92;98479.53;6306140;22;8777;-76
2021/09/10 07:18:31;;;;;;;;;0.00;0.00;;;;;30.64;62.60;98477.19;6307200;22;8858;-78
2021/09/10 07:21:02;;;;;;;;;0.00;0.00;;;;;30.62;63.34;98470.59;6307884;22;8869;-76
2021/09/10 07:23:32;;;;;;;;;0.00;0.00;;;;;30.64;63.46;98482.63;6306600;22;8858;-77
2021/09/10 07:26:03;;;;;;;;;0.00;0.00;;;;;30.56;63.45;98478.41;6308250;22;8808;-77
2021/09/10 07:28:33;;;;;;;;;0.00;0.00;;;;;30.51;61.43;98479.63;6309157;22;8800;-77
2021/09/10 07:31:07;;;;;;;;;0.00;0.00;;;;;30.43;61.36;98472.72;6306159;22;8800;-77
2021/09/10 07:33:41;;;;;;;;;0.00;0.00;;;;;30.49;63.86;98475.78;6305555;22;8785;-77
2021/09/10 07:36:10;;;;;;;;;0.00;0.00;;;;;30.53;62.43;98476.50;6305932;22;8797;-76
2021/09/10 07:38:39;;;;;;;;;0.00;0.00;;;;;30.56;60.26;98466.75;6279531;22;8773;-77
2021/09/10 07:41:07;;;;;;;;;0.00;0.00;;;;;30.62;60.60;98457.75;6279448;22;8812;-77
2021/09/10 07:43:36;;;;;;;;;0.00;0.00;;;;;30.77;60.02;98461.84;6305992;22;8866;-77
2021/09/10 07:46:05;;;;;;;;;0.00;0.00;;;;;30.99;60.10;98464.31;6314564;22;8789;-77
2021/09/10 07:48:33;;;;;;;;;0.00;0.00;;;;;31.18;61.55;98455.50;6307138;22;8870;-76
2021/09/10 07:51:02;;;;;;;;;0.00;0.00;;;;;31.28;59.37;98459.22;6308485;22;8804;-78
2021/09/10 07:53:30;;;;;;;;;0.00;0.00;;;;;31.35;62.23;98449.00;6307573;22;8795;-78
2021/09/10 07:56:00;;;;;;;;;0.00;0.00;;;;;31.33;62.45;98456.03;6306996;22;8799;-77
2021/09/10 07:58:28;;;;;;;;;0.00;0.00;;;;;31.28;61.37;98457.28;6305470;22;8870;-76
2021/09/10 08:00:57;;;;;;;;;0.00;0.00;;;;;31.22;59.71;98455.41;6306549;22;9553;-77
2021/09/10 08:03:27;;;;;;;;;0.00;0.00;;;;;31.22;61.04;98452.69;6307662;22;8800;-77
2021/09/10 08:05:57;;;;;;;;;0.00;0.00;;;;;31.20;62.09;98442.25;6306498;22;8785;-76
2021/09/10 08:08:26;;;;;;;;;0.00;0.00;;;;;31.21;61.90;98445.69;6305445;22;8877;-77
2021/09/10 08:10:57;;;;;;;;;0.00;0.00;;;;;31.19;60.62;98437.97;6305768;22;9522;-77
2021/09/10 08:13:26;;;;;;;;;0.00;0.00;;;;;31.26;60.25;98426.16;6306516;22;8788;-76
2021/09/10 08:15:56;;;;;;;;;0.00;0.00;;;;;31.37;60.44;98433.00;6305663;22;8812;-77
2021/09/10 08:18:24;;;;;;;;;0.00;0.00;;;;;31.46;61.27;98430.50;6278720;22;8815;-76
2021/09/10 08:21:00;;;;;;;;;0.00;0.00;;;;;31.46;61.31;98435.97;6305994;22;8804;-76
2021/09/10 08:23:29;;;;;;;;;0.00;0.00;;;;;31.41;61.32;98446.56;6305239;22;8780;-78
2021/09/10 08:26:01;;;;;;;;;0.00;0.00;;;;;31.33;60.56;98447.84;6308890;22;8795;-75
2021/09/10 08:28:29;;;;;;;;;0.00;0.00;;;;;31.23;61.41;98440.63;6304327;22;8873;-76
2021/09/10 08:30:59;;;;;;;;;0.00;0.00;;;;;31.21;59.50;98426.63;6304230;22;8815;-77
2021/09/10 08:33:28;;;;;;;;;0.00;0.00;;;;;31.17;61.15;98429.44;6277878;22;8813;-77
2021/09/10 08:35:57;;;;;;;;;0.00;0.00;;;;;31.17;61.02;98423.22;6304184;22;8831;-77
2021/09/10 08:38:25;;;;;;;;;0.00;0.00;;;;;31.20;58.22;98416.94;6304668;22;8854;-77
2021/09/10 08:40:58;;;;;;;;;0.00;0.00;;;;;31.30;57.95;98418.72;6278320;22;9576;-78
2021/09/10 08:43:27;;;;;;;;;0.00;0.00;;;;;31.47;61.08;98423.88;6304983;22;8919;-78
2021/09/10 08:46:00;;;;;;;;;0.00;0.00;;;;;31.55;59.86;98404.69;6305580;22;8859;-77
2021/09/10 08:48:29;;;;;;;;;0.00;0.00;;;;;31.59;60.44;98400.72;6304693;22;8823;-75
2021/09/10 08:50:59;;;;;;;;;0.00;0.00;;;;;31.62;60.36;98399.88;6277805;22;8800;-75
2021/09/10 08:53:27;;;;;;;;;0.00;0.00;;;;;31.59;59.66;98392.53;6304528;22;8816;-76
2021/09/10 08:56:02;;;;;;;;;0.00;0.00;;;;;31.52;59.88;98392.66;6303667;22;9541;-77
2021/09/10 08:58:30;;;;;;;;;0.00;0.00;;;;;31.47;59.80;98391.16;6304176;22;8875;-77
2021/09/10 09:01:00;;;;;;;;;0.00;0.00;;;;;31.43;57.24;98397.84;6304849;22;8785;-77
2021/09/10 09:03:33;;;;;;;;;0.00;0.00;;;;;31.44;60.43;98397.44;6306188;22;8793;-76
2021/09/10 09:06:03;;;;;;;;;0.00;0.00;;;;;31.45;60.16;98390.03;6307231;22;8795;-76
2021/09/10 09:08:32;;;;;;;;;0.00;0.00;;;;;31.43;60.18;98395.13;6306464;22;8784;-75
2021/09/10 09:11:05;;;;;;;;;0.00;0.00;;;;;31.39;58.60;98395.19;6305965;22;8800;-75
2021/09/10 09:13:38;;;;;;;;;0.00;0.00;;;;;31.35;59.43;98399.94;6305698;22;8805;-77
2021/09/10 09:16:20;;;;;;;;;0.00;0.00;;;;;31.30;58.58;98394.19;6307087;22;8891;-77
2021/09/10 09:18:51;;;;;;;;;0.00;0.00;;;;;31.27;57.14;98395.00;6306786;22;8797;-76
2021/09/10 09:21:41;;;;;;;;;0.40;0.40;;;;;31.25;59.37;98389.97;6305942;22;8792;-77
2021/09/10 09:24:23;;;;;;;;;0.00;0.00;;;;;31.28;59.80;98396.53;6306511;22;8781;-77
2021/09/10 09:26:53;;;;;;;;;0.00;0.00;;;;;31.26;59.50;98393.47;6306479;22;8792;-77
2021/09/10 09:29:22;;;;;;;;;0.00;0.00;;;;;31.24;59.89;98393.88;6304822;22;8869;-77
2021/09/10 09:32:02;;;;;;;;;0.00;0.00;;;;;31.20;60.21;98390.47;6304310;22;8823;-76
2021/09/10 09:34:45;;;;;;;;;0.00;0.00;;;;;31.15;60.41;98404.56;6277611;22;8970;-77
2021/09/10 09:37:20;;;;;;;;;0.00;0.00;;;;;31.06;60.44;98391.41;6305080;22;8891;-78
2021/09/10 09:40:00;;;;;;;;;0.00;0.00;;;;;30.97;60.53;98399.34;6304829;22;8848;-76
2021/09/10 09:42:35;;;;;;;;;0.00;0.00;;;;;30.91;60.31;98409.16;6304403;22;8923;-77
2021/09/10 09:45:20;;;;;;;;;0.00;0.00;;;;;30.85;60.01;98408.06;6309082;22;9522;-78
2021/09/10 09:47:49;;;;;;;;;0.00;0.00;;;;;30.79;59.80;98402.31;6280226;22;8855;-77
2021/09/10 09:50:20;;;;;;;;;0.00;0.00;;;;;30.73;59.67;98400.44;6307019;22;8817;-77
2021/09/10 09:52:50;;;;;;;;;0.00;0.00;;;;;30.71;59.42;98400.84;6306622;22;8890;-76
2021/09/10 09:55:19;;;;;;;;;0.00;0.00;;;;;30.62;59.97;98381.53;6307796;22;8816;-78
2021/09/10 09:57:50;;;;;;;;;0.00;0.00;;;;;30.68;60.54;98390.78;6306560;22;9630;-78
2021/09/10 10:00:19;;;;;;;;;0.20;0.20;;;;;30.63;60.41;98390.47;6282887;22;8788;-78
2021/09/10 10:02:51;;;;;;;;;0.00;0.00;;;;;30.52;60.39;98382.41;6308258;22;9543;-77
2021/09/10 10:05:20;;;;;;;;;0.00;0.00;;;;;30.56;60.13;98402.19;6280642;22;8796;-78
2021/09/10 10:08:03;;;;;;;;;0.00;0.00;;;;;30.53;60.39;98394.84;6303496;22;8889;-78
2021/09/10 10:10:43;;;;;;;;;0.00;0.00;;;;;30.52;60.76;98404.19;6302102;22;8785;-77
2021/09/10 10:13:25;;;;;;;;;13.25;13.25;;;;;30.47;60.75;98408.13;6304857;22;8781;-79
2021/09/10 10:15:53;;;;;;;;;4.40;4.40;;;;;30.45;60.97;98421.38;6306024;22;8773;-78
2021/09/10 10:18:44;;;;;;;;;0.60;0.60;;;;;30.44;61.38;98425.28;6307842;22;8804;-77
2021/09/10 10:21:14;;;;;;;;;0.80;0.80;;;;;30.39;61.23;98422.22;6310710;22;8879;-77
2021/09/10 10:23:54;;;;;;;;;0.60;0.60;;;;;30.30;61.05;98425.44;6308506;22;8799;-77
2021/09/10 10:26:37;;;;;;;;;0.00;0.00;;;;;30.25;60.66;98425.88;6308698;22;8780;-76
2021/09/10 10:29:13;;;;;;;;;0.20;0.20;;;;;30.25;60.78;98420.44;6307235;22;8883;-77
2021/09/10 10:32:02;;;;;;;;;0.00;0.00;;;;;30.30;60.31;98421.94;6307720;22;8804;-79
2021/09/10 10:34:32;;;;;;;;;0.00;0.00;;;;;30.35;60.47;98426.94;6307378;22;8801;-78
2021/09/10 10:37:01;;;;;;;;;0.00;0.00;;;;;30.40;60.94;98437.38;6306789;22;8785;-77
2021/09/10 10:39:30;;;;;;;;;0.00;0.00;;;;;30.38;61.53;98437.78;6306340;22;9632;-77
2021/09/10 10:42:03;;;;;;;;;0.00;0.00;;;;;30.36;60.79;98433.94;6307184;22;8789;-77
2021/09/10 10:44:50;;;;;;;;;0.40;0.40;;;;;30.32;60.87;98427.75;6306518;22;8788;-77
2021/09/10 10:47:31;;;;;;;;;0.00;0.00;;;;;30.28;60.70;98425.06;6307133;22;8785;-77
2021/09/10 10:50:02;;;;;;;;;0.00;0.00;;;;;30.27;61.06;98428.19;6306949;22;8895;-77
2021/09/10 10:52:35;;;;;;;;;0.00;0.00;;;;;30.25;61.54;98434.03;6307227;22;8823;-77
2021/09/10 10:55:23;;;;;;;;;0.00;0.00;;;;;30.22;61.69;98443.03;6307058;22;8787;-77
2021/09/10 10:58:14;;;;;;;;;0.00;0.00;;;;;30.16;61.71;98450.84;6307156;22;8797;-77
2021/09/10 11:00:42;;;;;;;;;0.00;0.00;;;;;30.08;61.96;98457.53;6307011;22;8870;-77
2021/09/10 11:03:14;;;;;;;;;0.00;0.00;;;;;30.01;61.80;98471.22;6306925;22;8773;-77
2021/09/10 11:05:45;;;;;;;;;0.00;0.00;;;;;29.93;62.34;98479.81;6307086;22;8776;-77
2021/09/10 11:08:44;;;;;;;;;0.00;0.00;;;;;29.84;61.87;98483.00;6306999;22;8842;-77
2021/09/10 11:11:13;;;;;;;;;0.00;0.00;;;;;29.65;62.43;98492.47;6307008;22;8777;-77
2021/09/10 11:13:42;;;;;;;;;0.00;0.00;;;;;29.38;62.44;98494.19;6306916;22;8785;-77
2021/09/10 11:16:24;;;;;;;;;0.00;0.00;;;;;29.04;62.73;98483.91;6307127;22;8788;-77
2021/09/10 11:18:53;;;;;;;;;0.00;0.00;;;;;28.93;63.59;98496.75;6306960;22;8805;-77
2021/09/10 11:21:28;;;;;;;;;0.00;0.00;;;;;28.78;63.97;98508.81;6307314;22;8788;-77
2021/09/10 11:24:06;;;;;;;;;0.00;0.00;;;;;28.63;64.04;98512.75;6307327;22;8862;-76
2021/09/10 11:26:36;;;;;;;;;0.00;0.00;;;;;28.51;65.09;98517.44;6307621;22;8804;-77
2021/09/10 11:29:08;;;;;;;;;0.00;0.00;;;;;28.35;66.17;98495.38;6308961;22;8793;-77
2021/09/10 11:31:37;;;;;;;;;0.00;0.00;;;;;28.47;65.09;98505.81;6308733;22;8862;-77
2021/09/10 11:34:06;;;;;;;;;0.00;0.00;;;;;28.52;64.67;98507.38;6284956;22;8812;-77
2021/09/10 11:36:34;;;;;;;;;0.00;0.00;;;;;28.50;65.99;98506.97;6311551;22;8807;-77
2021/09/10 11:39:09;;;;;;;;;0.00;0.00;;;;;28.55;66.18;98509.31;6311176;22;8781;-77
2021/09/10 11:41:38;;;;;;;;;0.00;0.00;;;;;28.53;64.76;98512.41;6308160;22;8773;-77
2021/09/10 11:44:09;;;;;;;;;0.00;0.00;;;;;28.55;65.23;98518.22;6307372;22;8827;-77
2021/09/10 11:46:40;;;;;;;;;0.00;0.00;;;;;28.52;65.54;98513.56;6308320;22;8781;-77
2021/09/10 11:49:09;;;;;;;;;0.00;0.00;;;;;28.52;66.29;98512.78;6307533;22;8834;-77
2021/09/10 11:51:43;;;;;;;;;0.00;0.00;;;;;28.47;66.13;98508.53;6306937;22;8781;-77
2021/09/10 11:54:14;;;;;;;;;0.00;0.00;;;;;28.45;66.38;98502.72;6307508;22;8785;-77
2021/09/10 11:56:45;;;;;;;;;1.00;1.00;;;;;28.47;65.71;98500.41;6310580;22;8773;-77